createdAt,value
2018-06-20T00:00:34.523Z,20.37
2018-06-20T00:03:04.287Z,18.90
2018-06-20T00:05:33.944Z,21.77
2018-06-20T00:08:03.611Z,20.83
2018-06-20T00:10:33.299Z,22.70
2018-06-20T00:13:02.927Z,22.40
2018-06-20T00:15:32.583Z,23.13
2018-06-20T00:18:02.280Z,21.67
2018-06-20T00:20:31.952Z,23.17
2018-06-20T00:23:01.604Z,23.63
2018-06-20T00:25:31.316Z,21.13
2018-06-20T00:28:00.968Z,19.97
2018-06-20T00:30:30.622Z,22.97
2018-06-20T00:33:00.328Z,22.90
2018-06-20T00:35:30.188Z,22.23
2018-06-20T00:37:59.839Z,21.40
2018-06-20T00:40:29.528Z,21.73
2018-06-20T00:42:59.166Z,20.90
2018-06-20T00:45:28.799Z,21.43
2018-06-20T00:47:58.492Z,19.00
2018-06-20T00:50:28.132Z,20.27
2018-06-20T00:52:57.755Z,20.13
2018-06-20T00:55:38.435Z,19.87
2018-06-20T00:58:08.100Z,21.30
2018-06-20T01:00:38.100Z,21.80
2018-06-20T01:03:07.747Z,18.80
2018-06-20T01:05:37.435Z,22.30
2018-06-20T01:08:07.199Z,18.40
2018-06-20T01:10:36.866Z,20.97
2018-06-20T01:13:06.524Z,22.07
2018-06-20T01:15:36.271Z,21.73
2018-06-20T01:18:06.168Z,22.37
2018-06-20T01:20:35.821Z,22.93
2018-06-20T01:23:05.521Z,23.63
2018-06-20T01:25:35.173Z,19.93
2018-06-20T01:28:04.840Z,19.27
2018-06-20T01:30:34.583Z,20.97
2018-06-20T01:33:04.234Z,20.73
2018-06-20T01:35:33.876Z,18.37
2018-06-20T01:38:03.572Z,21.53
2018-06-20T01:40:33.211Z,20.23
2018-06-20T01:43:02.859Z,19.90
2018-06-20T01:45:32.555Z,19.60
2018-06-20T01:48:02.244Z,20.40
2018-06-20T01:50:31.871Z,20.50
2018-06-20T01:53:02.092Z,20.17
2018-06-20T01:55:31.798Z,20.97
2018-06-20T01:58:01.456Z,22.13
2018-06-20T02:00:31.143Z,21.00
2018-06-20T02:03:00.764Z,22.27
2018-06-20T02:05:30.414Z,21.23
2018-06-20T02:08:00.121Z,21.27
2018-06-20T02:10:29.776Z,20.47
2018-06-20T02:12:59.416Z,21.27
2018-06-20T02:15:29.107Z,20.20
2018-06-20T02:17:58.736Z,21.57
2018-06-20T02:20:28.384Z,23.07
2018-06-20T02:22:58.071Z,19.90
2018-06-20T02:25:27.723Z,19.77
2018-06-20T02:27:57.482Z,21.23
2018-06-20T02:30:27.221Z,21.53
2018-06-20T02:32:56.872Z,18.87
2018-06-20T02:35:26.576Z,19.10
2018-06-20T02:37:56.291Z,21.43
2018-06-20T02:40:25.944Z,20.20
2018-06-20T02:42:55.623Z,22.47
2018-06-20T02:45:25.260Z,22.27
2018-06-20T02:47:58.255Z,22.40
2018-06-20T02:50:27.907Z,20.87
2018-06-20T02:52:57.570Z,20.07
2018-06-20T02:55:27.288Z,18.63
2018-06-20T02:57:56.964Z,21.30
2018-06-20T03:00:26.621Z,20.87
2018-06-20T03:02:56.319Z,20.77
2018-06-20T03:05:25.964Z,20.43
2018-06-20T03:07:55.616Z,18.67
2018-06-20T03:10:25.312Z,17.63
2018-06-20T03:12:54.976Z,18.27
2018-06-20T03:15:24.617Z,18.63
2018-06-20T03:17:54.491Z,18.47
2018-06-20T03:20:24.152Z,20.00
2018-06-20T03:22:53.836Z,19.33
2018-06-20T03:25:23.536Z,19.17
2018-06-20T03:27:53.178Z,18.53
2018-06-20T03:30:22.876Z,18.57
2018-06-20T03:32:52.571Z,17.40
2018-06-20T03:35:22.211Z,22.50
2018-06-20T03:37:51.880Z,20.53
2018-06-20T03:40:21.568Z,19.97
2018-06-20T03:42:51.220Z,19.43
2018-06-20T03:45:20.844Z,18.03
2018-06-20T03:47:50.848Z,19.20
2018-06-20T03:50:20.496Z,22.73
2018-06-20T03:52:50.255Z,19.80
2018-06-20T03:55:19.891Z,21.43
2018-06-20T03:57:49.579Z,20.23
2018-06-20T04:00:19.465Z,21.07
2018-06-20T04:02:49.119Z,21.50
2018-06-20T04:05:18.757Z,17.83
2018-06-20T04:07:48.439Z,21.10
2018-06-20T04:10:18.099Z,19.03
2018-06-20T04:12:47.850Z,19.23
2018-06-20T04:15:17.494Z,20.53
2018-06-20T04:17:47.119Z,20.60
2018-06-20T04:20:16.832Z,19.33
2018-06-20T04:22:46.524Z,17.70
2018-06-20T04:25:16.179Z,19.20
2018-06-20T04:27:45.902Z,20.87
2018-06-20T04:30:15.551Z,22.93
2018-06-20T04:32:45.244Z,22.63
2018-06-20T04:35:14.875Z,22.40
2018-06-20T04:37:44.508Z,22.63
2018-06-20T04:40:14.283Z,21.97
2018-06-20T04:42:43.935Z,22.80
2018-06-20T04:45:13.575Z,23.63
2018-06-20T04:47:43.319Z,22.30
2018-06-20T04:50:12.965Z,22.63
2018-06-20T04:52:42.938Z,23.03
2018-06-20T04:55:12.652Z,23.07
2018-06-20T04:57:42.292Z,22.53
2018-06-20T05:00:11.974Z,22.73
2018-06-20T05:02:41.659Z,23.77
2018-06-20T05:05:11.291Z,24.73
2018-06-20T05:07:40.965Z,24.50
2018-06-20T05:10:10.712Z,23.23
2018-06-20T05:12:40.390Z,25.03
2018-06-20T05:15:10.084Z,21.13
2018-06-20T05:17:39.731Z,25.10
2018-06-20T05:20:09.369Z,25.37
2018-06-20T05:22:39.144Z,24.47
2018-06-20T05:25:08.765Z,27.10
2018-06-20T05:27:38.419Z,24.43
2018-06-20T05:30:08.121Z,27.20
2018-06-20T05:32:38.043Z,27.07
2018-06-20T05:35:07.696Z,25.93
2018-06-20T05:37:37.382Z,29.00
2018-06-20T05:40:07.031Z,26.70
2018-06-20T05:42:36.718Z,28.10
2018-06-20T05:45:06.432Z,28.47
2018-06-20T05:47:36.096Z,27.63
2018-06-20T05:50:05.777Z,26.60
2018-06-20T05:52:35.477Z,29.17
2018-06-20T05:55:05.263Z,24.63
2018-06-20T05:57:34.907Z,27.13
2018-06-20T06:00:04.667Z,27.43
2018-06-20T06:02:34.343Z,26.03
2018-06-20T06:05:04.179Z,26.20
2018-06-20T06:07:33.812Z,23.73
2018-06-20T06:10:03.574Z,23.03
2018-06-20T06:12:33.260Z,23.17
2018-06-20T06:15:02.912Z,21.70
2018-06-20T06:17:32.595Z,24.13
2018-06-20T06:20:02.235Z,23.27
2018-06-20T06:22:31.912Z,21.77
2018-06-20T06:25:01.610Z,22.40
2018-06-20T06:27:31.343Z,20.50
2018-06-20T06:30:00.990Z,22.00
2018-06-20T06:32:30.683Z,21.60
2018-06-20T06:35:00.352Z,20.80
2018-06-20T06:37:30.053Z,20.90
2018-06-20T06:39:59.724Z,18.50
2018-06-20T06:42:29.372Z,20.10
2018-06-20T06:44:59.065Z,20.07
2018-06-20T06:47:28.748Z,19.83
2018-06-20T06:49:58.480Z,20.33
2018-06-20T06:52:28.136Z,20.03
2018-06-20T06:54:57.812Z,20.90
2018-06-20T06:57:27.464Z,19.00
2018-06-20T06:59:57.191Z,19.47
2018-06-20T07:02:26.839Z,20.23
2018-06-20T07:04:56.492Z,19.90
2018-06-20T07:07:26.184Z,20.30
2018-06-20T07:09:55.828Z,20.67
2018-06-20T07:12:25.758Z,20.30
2018-06-20T07:14:55.441Z,19.47
2018-06-20T07:17:25.082Z,23.73
2018-06-20T07:19:54.764Z,23.47
2018-06-20T07:22:24.610Z,22.23
2018-06-20T07:24:54.256Z,25.77
2018-06-20T07:27:23.952Z,23.57
2018-06-20T07:29:53.719Z,21.30
2018-06-20T07:32:23.344Z,24.77
2018-06-20T07:34:53.069Z,23.13
2018-06-20T07:37:22.720Z,23.53
2018-06-20T07:39:52.380Z,24.93
2018-06-20T07:42:22.063Z,24.67
2018-06-20T07:44:51.691Z,24.03
2018-06-20T07:47:21.329Z,24.37
2018-06-20T07:49:51.004Z,23.57
2018-06-20T07:52:20.628Z,26.63
2018-06-20T07:54:50.309Z,27.70
2018-06-20T07:57:19.953Z,28.03
2018-06-20T07:59:54.832Z,27.03
2018-06-20T08:02:40.727Z,25.50
2018-06-20T08:05:15.582Z,25.80
2018-06-20T08:07:50.311Z,25.27
2018-06-20T08:10:25.143Z,24.97
2018-06-20T08:12:59.948Z,25.80
2018-06-20T08:15:34.776Z,24.33
2018-06-20T08:18:09.660Z,23.60
2018-06-20T08:20:39.344Z,23.37
2018-06-20T08:23:10.181Z,26.30
2018-06-20T08:25:39.882Z,23.83
2018-06-20T08:28:09.535Z,24.00
2018-06-20T08:30:39.239Z,24.20
2018-06-20T08:33:08.877Z,22.77
2018-06-20T08:35:38.533Z,21.87
2018-06-20T08:38:08.197Z,23.33
2018-06-20T08:40:37.848Z,19.50
2018-06-20T08:43:07.484Z,20.70
2018-06-20T08:45:37.169Z,20.07
2018-06-20T08:48:06.832Z,20.97
2018-06-20T08:50:36.452Z,20.10
2018-06-20T08:53:06.304Z,20.00
2018-06-20T08:55:35.904Z,21.43
2018-06-20T08:58:05.544Z,20.87
2018-06-20T09:00:40.425Z,20.57
2018-06-20T09:03:10.089Z,20.93
2018-06-20T09:05:44.792Z,19.83
2018-06-20T09:08:19.572Z,19.60
2018-06-20T09:10:54.476Z,18.33
2018-06-20T09:13:29.160Z,19.10
2018-06-20T09:16:03.956Z,20.13
2018-06-20T09:18:38.769Z,20.63
2018-06-20T09:21:08.507Z,18.73
2018-06-20T09:23:38.119Z,18.73
2018-06-20T09:26:07.764Z,19.27
2018-06-20T09:28:37.464Z,18.47
2018-06-20T09:31:07.128Z,17.93
2018-06-20T09:33:36.820Z,18.33
2018-06-20T09:36:06.441Z,16.93
2018-06-20T09:38:36.158Z,18.20
2018-06-20T09:41:05.789Z,17.23
2018-06-20T09:43:35.395Z,16.90
2018-06-20T09:46:05.074Z,17.20
2018-06-20T09:48:34.711Z,16.70
2018-06-20T09:51:04.385Z,16.40
2018-06-20T09:53:34.080Z,16.80
2018-06-20T09:56:03.732Z,17.10
2018-06-20T09:58:33.348Z,16.02
2018-06-20T10:01:08.208Z,16.00
2018-06-20T10:03:43.039Z,15.58
2018-06-20T10:06:17.965Z,15.63
2018-06-20T10:08:56.744Z,16.17
2018-06-20T10:11:31.461Z,16.52
2018-06-20T10:14:02.186Z,15.15
2018-06-20T10:16:32.251Z,15.38
2018-06-20T10:19:01.872Z,15.28
2018-06-20T10:21:31.521Z,15.53
2018-06-20T10:24:01.204Z,15.45
2018-06-20T10:26:30.872Z,14.87
2018-06-20T10:29:00.507Z,14.50
2018-06-20T10:31:30.177Z,14.03
2018-06-20T10:33:59.820Z,14.58
2018-06-20T10:36:29.497Z,14.70
2018-06-20T10:38:59.220Z,13.53
2018-06-20T10:41:32.935Z,14.23
2018-06-20T10:44:06.939Z,12.68
2018-06-20T10:46:41.664Z,14.50
2018-06-20T10:49:11.388Z,13.62
2018-06-20T10:51:41.493Z,14.38
2018-06-20T10:54:11.200Z,13.15
2018-06-20T10:57:50.075Z,12.50
2018-06-20T11:00:24.883Z,12.15
2018-06-20T11:02:59.565Z,12.03
2018-06-20T11:05:34.369Z,12.47
2018-06-20T11:08:09.048Z,12.68
2018-06-20T11:10:43.845Z,12.05
2018-06-20T11:13:15.033Z,13.05
2018-06-20T11:15:45.671Z,13.00
2018-06-20T11:18:15.297Z,12.68
2018-06-20T11:20:50.080Z,12.95
2018-06-20T11:23:19.711Z,12.28
2018-06-20T11:25:49.349Z,12.78
2018-06-20T11:28:19.028Z,12.07
2018-06-20T11:30:48.652Z,12.00
2018-06-20T11:33:18.252Z,11.33
2018-06-20T11:35:47.965Z,12.07
2018-06-20T11:38:17.607Z,10.80
2018-06-20T11:40:47.271Z,11.43
2018-06-20T11:43:16.896Z,11.15
2018-06-20T11:45:51.716Z,11.68
2018-06-20T11:48:21.353Z,11.18
2018-06-20T11:50:50.988Z,11.00
2018-06-20T11:53:20.643Z,10.60
2018-06-20T11:55:50.256Z,10.40
2018-06-20T11:58:25.240Z,9.78
2018-06-20T12:01:00.140Z,9.53
2018-06-20T12:03:35.037Z,10.10
2018-06-20T12:06:09.869Z,9.45
2018-06-20T12:08:44.755Z,9.98
2018-06-20T12:11:19.677Z,8.78
2018-06-20T12:13:54.509Z,9.10
2018-06-20T12:16:25.184Z,9.10
2018-06-20T12:18:59.991Z,10.08
2018-06-20T12:21:34.750Z,10.18
2018-06-20T12:24:09.787Z,9.58
2018-06-20T12:26:44.652Z,9.48
2018-06-20T12:29:19.664Z,9.93
2018-06-20T12:31:54.391Z,8.83
2018-06-20T12:34:29.132Z,8.60
2018-06-20T12:37:03.941Z,9.38
2018-06-20T12:39:32.648Z,9.08
2018-06-20T12:42:07.390Z,8.73
2018-06-20T12:44:42.253Z,8.23
2018-06-20T12:47:19.221Z,8.20
2018-06-20T12:50:06.844Z,8.50
2018-06-20T12:52:36.521Z,8.03
2018-06-20T12:55:06.210Z,8.50
2018-06-20T12:57:35.820Z,7.50
2018-06-20T13:00:05.526Z,8.08
2018-06-20T13:02:35.183Z,7.42
2018-06-20T13:05:04.913Z,6.78
2018-06-20T13:07:34.560Z,6.53
2018-06-20T13:10:04.256Z,6.92
2018-06-20T13:12:33.916Z,6.62
2018-06-20T13:15:03.556Z,6.45
2018-06-20T13:17:33.666Z,7.55
2018-06-20T13:20:03.553Z,6.60
2018-06-20T13:22:33.172Z,6.67
2018-06-20T13:25:02.826Z,6.03
2018-06-20T13:27:37.564Z,5.62
2018-06-20T13:30:09.769Z,5.45
2018-06-20T13:32:44.564Z,5.53
2018-06-20T13:35:19.248Z,5.70
2018-06-20T13:37:54.055Z,5.12
2018-06-20T13:40:28.927Z,5.45
2018-06-20T13:43:03.703Z,5.25
2018-06-20T13:45:38.560Z,5.37
2018-06-20T13:48:13.433Z,4.78
2018-06-20T13:50:43.046Z,4.67
2018-06-20T13:53:12.743Z,5.17
2018-06-20T13:55:42.399Z,4.60
2018-06-20T13:58:14.271Z,4.10
2018-06-20T14:00:43.923Z,4.10
2018-06-20T14:03:13.532Z,3.95
2018-06-20T14:05:43.187Z,3.92
2018-06-20T14:08:12.803Z,4.10
2018-06-20T14:10:42.448Z,3.50
2018-06-20T14:13:12.132Z,3.47
2018-06-20T14:15:41.724Z,3.83
2018-06-20T14:18:11.364Z,3.30
2018-06-20T14:20:46.300Z,3.10
2018-06-20T14:23:15.897Z,3.40
2018-06-20T14:25:45.555Z,3.42
2018-06-20T14:28:15.173Z,3.45
2018-06-20T14:30:49.936Z,3.10
2018-06-20T14:33:24.768Z,3.10
2018-06-20T14:35:59.673Z,3.27
2018-06-20T14:38:34.398Z,3.05
2018-06-20T14:41:09.560Z,2.80
2018-06-20T14:43:44.337Z,2.60
2018-06-20T14:46:17.153Z,2.35
2018-06-20T14:48:47.738Z,2.10
2018-06-20T14:51:17.607Z,2.37
2018-06-20T14:53:47.287Z,2.35
2018-06-20T14:56:17.650Z,1.98
2018-06-20T14:58:47.270Z,2.05
2018-06-20T15:01:17.049Z,2.20
2018-06-20T15:03:46.552Z,2.12
2018-06-20T15:06:16.171Z,2.20
2018-06-20T15:08:45.776Z,2.00
2018-06-20T15:11:15.482Z,2.17
2018-06-20T15:13:45.092Z,2.08
2018-06-20T15:16:19.945Z,1.82
2018-06-20T15:18:49.551Z,2.10
2018-06-20T15:21:19.228Z,2.65
2018-06-20T15:23:48.842Z,2.17
2018-06-20T15:26:23.592Z,2.22
2018-06-20T15:28:58.248Z,2.10
2018-06-20T15:31:33.092Z,1.95
2018-06-20T15:34:07.731Z,1.92
2018-06-20T15:36:42.552Z,2.27
2018-06-20T15:39:12.147Z,2.20
2018-06-20T15:41:41.780Z,2.33
2018-06-20T15:44:11.427Z,1.90
2018-06-20T15:46:41.044Z,1.92
2018-06-20T15:49:10.651Z,1.98
2018-06-20T15:51:40.345Z,2.00
2018-06-20T15:54:09.964Z,2.20
2018-06-20T15:56:39.604Z,2.05
2018-06-20T15:59:09.248Z,2.02
2018-06-20T16:01:38.931Z,2.10
2018-06-20T16:04:08.616Z,2.20
2018-06-20T16:06:38.431Z,2.27
2018-06-20T16:09:13.649Z,2.20
2018-06-20T16:11:43.476Z,2.10
2018-06-20T16:14:13.111Z,2.25
2018-06-20T16:16:42.733Z,2.00
2018-06-20T16:19:17.581Z,2.17
2018-06-20T16:21:52.384Z,2.00
2018-06-20T16:24:27.289Z,2.02
2018-06-20T16:27:01.936Z,2.05
2018-06-20T16:29:36.809Z,2.30
2018-06-20T16:32:06.448Z,2.27
2018-06-20T16:34:36.097Z,1.92
2018-06-20T16:37:05.721Z,2.08
2018-06-20T16:39:35.353Z,2.08
2018-06-20T16:42:05.052Z,1.90
2018-06-20T16:44:34.672Z,2.10
2018-06-20T16:47:04.300Z,2.20
2018-06-20T16:49:33.944Z,2.10
2018-06-20T16:52:03.552Z,2.37
2018-06-20T16:54:33.217Z,2.20
2018-06-20T16:57:02.832Z,2.20
2018-06-20T16:59:32.457Z,2.00
2018-06-20T17:02:07.248Z,2.15
2018-06-20T17:04:36.894Z,2.08
2018-06-20T17:07:06.581Z,1.82
2018-06-20T17:09:36.241Z,2.00
2018-06-20T17:12:11.183Z,2.25
2018-06-20T17:14:46.020Z,1.90
2018-06-20T17:17:20.945Z,1.62
2018-06-20T17:19:55.653Z,1.65
2018-06-20T17:22:30.289Z,2.10
2018-06-20T17:25:05.045Z,1.92
2018-06-20T17:27:34.700Z,1.65
2018-06-20T17:30:05.089Z,1.40
2018-06-20T17:32:34.752Z,1.55
2018-06-20T17:35:04.517Z,1.72
2018-06-20T17:37:34.217Z,1.50
2018-06-20T17:40:03.958Z,2.00
2018-06-20T17:42:33.582Z,1.90
2018-06-20T17:45:03.307Z,1.45
2018-06-20T17:47:32.923Z,1.80
2018-06-20T17:50:02.534Z,1.92
2018-06-20T17:52:32.199Z,1.67
2018-06-20T17:55:01.824Z,1.90
2018-06-20T17:57:31.443Z,1.55
2018-06-20T18:00:01.137Z,1.75
2018-06-20T18:02:30.755Z,1.60
2018-06-20T18:05:05.620Z,1.80
2018-06-20T18:07:40.311Z,2.05
2018-06-20T18:10:15.189Z,1.75
2018-06-20T18:12:49.847Z,1.80
2018-06-20T18:15:24.741Z,2.00
2018-06-20T18:17:54.355Z,1.95
2018-06-20T18:20:24.087Z,2.30
2018-06-20T18:22:53.732Z,1.98
2018-06-20T18:25:23.349Z,2.05
2018-06-20T18:27:53.020Z,1.80
2018-06-20T18:30:22.652Z,2.00
2018-06-20T18:32:52.288Z,2.37
2018-06-20T18:35:22.009Z,2.17
2018-06-20T18:37:51.632Z,2.15
2018-06-20T18:40:21.256Z,2.17
2018-06-20T18:42:50.919Z,1.85
2018-06-20T18:45:20.596Z,2.30
2018-06-20T18:47:55.286Z,2.27
2018-06-20T18:50:24.914Z,2.25
2018-06-20T18:52:54.589Z,2.10
2018-06-20T18:55:24.254Z,2.37
2018-06-20T18:57:58.909Z,2.27
2018-06-20T19:00:33.725Z,2.17
2018-06-20T19:03:08.416Z,2.42
2018-06-20T19:05:43.369Z,2.30
2018-06-20T19:08:18.077Z,2.65
2018-06-20T19:10:47.771Z,2.47
2018-06-20T19:13:17.443Z,2.05
2018-06-20T19:15:47.109Z,2.80
2018-06-20T19:18:16.740Z,4.67
2018-06-20T19:20:46.386Z,8.00
2018-06-20T19:23:16.044Z,4.00
2018-06-20T19:25:45.677Z,2.77
2018-06-20T19:28:15.302Z,2.50
2018-06-20T19:30:45.116Z,2.50
2018-06-20T19:33:14.711Z,2.47
2018-06-20T19:35:44.321Z,2.22
2018-06-20T19:38:14.005Z,2.67
2018-06-20T19:40:43.607Z,2.30
2018-06-20T19:43:13.242Z,2.60
2018-06-20T19:45:42.912Z,2.80
2018-06-20T19:48:12.523Z,2.70
2018-06-20T19:50:42.188Z,2.77
2018-06-20T19:53:11.919Z,2.80
2018-06-20T19:55:41.543Z,2.47
2018-06-20T19:58:11.217Z,2.67
2018-06-20T20:00:40.914Z,2.62
2018-06-20T20:03:10.527Z,2.60
2018-06-20T20:05:40.197Z,2.65
2018-06-20T20:08:09.814Z,2.45
2018-06-20T20:10:39.517Z,2.62
2018-06-20T20:13:09.236Z,2.65
2018-06-20T20:15:38.843Z,2.87
2018-06-20T20:18:08.459Z,2.55
2018-06-20T20:20:38.157Z,3.07
2018-06-20T20:23:07.764Z,2.67
2018-06-20T20:25:37.423Z,2.80
2018-06-20T20:28:07.087Z,2.97
2018-06-20T20:30:36.715Z,3.00
2018-06-20T20:33:06.384Z,3.10
2018-06-20T20:35:36.070Z,2.67
2018-06-20T20:38:05.676Z,3.00
2018-06-20T20:40:35.299Z,2.80
2018-06-20T20:43:05.056Z,3.10
2018-06-20T20:45:34.657Z,3.20
2018-06-20T20:48:04.320Z,3.17
2018-06-20T20:50:34.012Z,3.10
2018-06-20T20:53:03.608Z,2.90
2018-06-20T20:55:33.275Z,2.83
2018-06-20T20:58:02.904Z,3.20
2018-06-20T21:00:32.515Z,3.33
2018-06-20T21:03:02.412Z,3.17
2018-06-20T21:05:32.048Z,3.03
2018-06-20T21:08:01.684Z,7.20
2018-06-20T21:10:31.420Z,9.03
2018-06-20T21:13:01.083Z,8.47
2018-06-20T21:15:30.696Z,5.07
2018-06-20T21:18:00.366Z,4.43
2018-06-20T21:20:29.979Z,3.60
2018-06-20T21:22:59.604Z,3.30
2018-06-20T21:25:29.281Z,2.90
2018-06-20T21:27:58.953Z,2.97
2018-06-20T21:30:28.548Z,3.30
2018-06-20T21:32:58.225Z,2.90
2018-06-20T21:35:27.851Z,2.93
2018-06-20T21:37:57.544Z,2.90
2018-06-20T21:40:27.204Z,3.07
2018-06-20T21:42:56.840Z,2.60
2018-06-20T21:45:26.621Z,3.23
2018-06-20T21:47:56.234Z,2.97
2018-06-20T21:50:25.853Z,3.00
2018-06-20T21:52:55.528Z,3.30
2018-06-20T21:55:25.153Z,3.07
2018-06-20T21:57:54.784Z,3.10
2018-06-20T22:00:28.021Z,3.23
2018-06-20T22:02:57.641Z,2.57
2018-06-20T22:05:27.269Z,3.50
2018-06-20T22:07:56.938Z,2.80
2018-06-20T22:10:26.569Z,3.17
2018-06-20T22:12:56.271Z,3.10
2018-06-20T22:15:25.915Z,3.30
2018-06-20T22:17:55.532Z,3.20
2018-06-20T22:20:25.200Z,3.30
2018-06-20T22:22:54.845Z,3.00
2018-06-20T22:25:24.476Z,3.50
2018-06-20T22:27:54.143Z,3.40
2018-06-20T22:30:23.763Z,3.00
2018-06-20T22:32:53.387Z,3.10
2018-06-20T22:35:23.036Z,3.00
2018-06-20T22:37:52.732Z,3.53
2018-06-20T22:40:22.347Z,3.00
2018-06-20T22:42:52.034Z,3.17
2018-06-20T22:45:21.673Z,3.53
2018-06-20T22:47:51.287Z,3.47
2018-06-20T22:50:20.969Z,3.20
2018-06-20T22:52:50.580Z,3.63
2018-06-20T22:55:20.240Z,3.27
2018-06-20T22:57:49.912Z,3.47
2018-06-20T23:00:19.537Z,3.90
2018-06-20T23:02:49.184Z,3.37
2018-06-20T23:05:18.796Z,3.47
2018-06-20T23:07:48.400Z,3.20
2018-06-20T23:10:18.440Z,3.60
2018-06-20T23:12:48.044Z,3.37
2018-06-20T23:15:17.665Z,3.70
2018-06-20T23:17:47.315Z,3.97
2018-06-20T23:20:16.928Z,3.70
2018-06-20T23:22:46.532Z,3.33
2018-06-20T23:25:16.184Z,3.40
2018-06-20T23:27:45.795Z,3.57
2018-06-20T23:30:15.408Z,3.60
2018-06-20T23:32:45.072Z,3.40
2018-06-20T23:35:14.699Z,3.47
2018-06-20T23:37:44.308Z,3.70
2018-06-20T23:40:13.968Z,3.83
2018-06-20T23:42:43.819Z,3.37
2018-06-20T23:45:13.735Z,3.77
2018-06-20T23:47:43.335Z,3.23
2018-06-20T23:50:12.963Z,3.50
2018-06-20T23:52:42.625Z,3.90
2018-06-20T23:55:12.236Z,4.07
2018-06-20T23:57:41.851Z,3.73
